Time;durP1;ratioP1;P1;durP2;ratioP2;P2;SDS_P1;SDS_P2;PMS_P1;PMS_P2;Temp;Humidity;BMP_temperature;BMP_pressure;BME280_temperature;BME280_humidity;BME280_pressure;Samples;Min_cycle;Max_cycle;Signal;HPM_P1;HPM_P2
2022/11/11 00:00:29;;;;;;;43.55;31.63;;;21.50;67.80;;;;;;4987832;28;20087;-78
2022/11/11 00:03:15;;;;;;;48.45;34.40;;;21.50;67.80;;;;;;5002121;28;20022;-82
2022/11/11 00:06:03;;;;;;;52.65;34.38;;;21.50;68.90;;;;;;5008788;28;20036;-79
2022/11/11 00:08:48;;;;;;;48.85;32.75;;;21.50;68.90;;;;;;5012166;28;20033;-79
2022/11/11 00:11:32;;;;;;;46.10;31.88;;;21.50;68.50;;;;;;5000600;28;20060;-78
2022/11/11 00:14:16;;;;;;;45.22;31.75;;;21.50;68.30;;;;;;5013824;28;20037;-77
2022/11/11 00:26:25;;;;;;;41.03;29.27;;;21.40;67.90;;;;;;5007465;28;20029;-79
2022/11/11 00:29:10;;;;;;;41.38;28.85;;;21.40;67.90;;;;;;5017453;28;20025;-79
2022/11/11 00:38:10;;;;;;;42.28;29.65;;;21.40;68.40;;;;;;5015439;28;20025;-79
2022/11/11 00:40:54;;;;;;;38.75;24.17;;;21.50;68.50;;;;;;4993172;28;20072;-81
2022/11/11 00:43:38;;;;;;;60.75;41.95;;;21.40;66.30;;;;;;5021205;28;21571;-81
2022/11/11 00:52:29;;;;;;;47.47;29.95;;;20.90;57.00;;;;;;5010349;28;20040;-75
2022/11/11 00:55:13;;;;;;;54.42;28.15;;;21.00;59.10;;;;;;5015158;28;20075;-75
2022/11/11 00:57:58;;;;;;;42.05;26.70;;;21.00;59.90;;;;;;5031383;28;20025;-75
2022/11/11 01:00:43;;;;;;;40.28;26.77;;;21.10;60.40;;;;;;5015012;28;20565;-75
2022/11/11 01:03:27;;;;;;;39.10;26.23;;;21.10;60.80;;;;;;5022012;28;20507;-75
2022/11/11 01:06:12;;;;;;;41.33;25.70;;;21.20;61.20;;;;;;5013535;28;20068;-75
2022/11/11 01:08:57;;;;;;;36.65;25.02;;;21.20;61.50;;;;;;5024313;28;20110;-75
2022/11/11 01:11:41;;;;;;;36.22;25.38;;;21.20;61.80;;;;;;5015925;28;20041;-75
2022/11/11 01:14:26;;;;;;;39.50;24.85;;;21.20;62.10;;;;;;5010727;28;20025;-75
2022/11/11 01:17:10;;;;;;;36.13;24.20;;;21.30;62.40;;;;;;5019546;28;20022;-75
2022/11/11 01:19:55;;;;;;;38.15;26.13;;;21.20;62.80;;;;;;5024043;28;20507;-75
2022/11/11 01:22:39;;;;;;;39.25;24.38;;;21.20;63.40;;;;;;5020099;28;20034;-75
2022/11/11 01:25:23;;;;;;;31.85;23.10;;;21.30;63.20;;;;;;5019024;28;20489;-75
2022/11/11 01:28:08;;;;;;;33.85;23.70;;;21.30;63.50;;;;;;5009886;28;20088;-75
2022/11/11 01:30:52;;;;;;;35.38;23.50;;;21.30;63.70;;;;;;5027880;28;20095;-75
2022/11/11 01:33:37;;;;;;;36.08;23.13;;;21.30;64.50;;;;;;5013841;28;20022;-75
2022/11/11 01:36:24;;;;;;;32.38;22.25;;;21.30;64.50;;;;;;5023396;28;20030;-76
2022/11/11 01:39:09;;;;;;;32.47;22.33;;;21.30;64.10;;;;;;5001723;28;20112;-75
2022/11/11 01:41:53;;;;;;;32.58;22.33;;;21.30;64.80;;;;;;5016762;28;20076;-75
2022/11/11 01:44:45;;;;;;;34.25;23.20;;;21.30;65.20;;;;;;5017587;28;20025;-75
2022/11/11 01:49:17;;;;;;;32.55;21.50;;;21.30;64.50;;;;;;5013652;28;20076;-75
2022/11/11 01:50:35;;;;;;;31.65;21.90;;;21.30;64.60;;;;;;5019766;28;20057;-75
2022/11/11 01:53:19;;;;;;;34.13;20.85;;;21.30;64.60;;;;;;5013966;28;20391;-75
2022/11/11 01:56:04;;;;;;;31.55;21.08;;;21.30;64.70;;;;;;5022942;28;20032;-75
2022/11/11 01:58:54;;;;;;;28.80;20.92;;;21.30;65.50;;;;;;5027877;28;20386;-75
2022/11/11 02:01:39;;;;;;;28.60;19.83;;;21.30;64.90;;;;;;5019342;28;20112;-75
2022/11/11 02:07:27;;;;;;;29.80;20.40;;;21.30;65.10;;;;;;5006698;28;20022;-75
2022/11/11 02:10:12;;;;;;;27.13;19.45;;;21.30;66.00;;;;;;5021985;28;20029;-75
2022/11/11 02:16:00;;;;;;;28.50;18.75;;;21.30;65.20;;;;;;5016213;28;20029;-75
2022/11/11 02:18:44;;;;;;;28.25;19.65;;;21.30;65.50;;;;;;4999888;28;20056;-75
2022/11/11 02:21:41;;;;;;;30.77;19.25;;;21.30;66.30;;;;;;5020200;28;20044;-75
2022/11/11 02:24:26;;;;;;;27.00;18.38;;;21.30;65.50;;;;;;5016571;28;20029;-75
2022/11/11 02:27:15;;;;;;;27.02;18.05;;;21.30;65.40;;;;;;5019501;28;20022;-75
2022/11/11 02:30:00;;;;;;;30.80;18.65;;;21.30;65.70;;;;;;5023778;28;20021;-75
2022/11/11 02:32:48;;;;;;;26.23;18.15;;;21.40;65.70;;;;;;5023052;28;20028;-75
2022/11/11 02:35:35;;;;;;;27.98;19.10;;;21.40;66.10;;;;;;5019126;28;20065;-75
2022/11/11 02:38:19;;;;;;;27.67;17.55;;;21.30;66.30;;;;;;5024061;28;20026;-75
2022/11/11 02:44:07;;;;;;;24.85;17.48;;;21.30;66.80;;;;;;5022246;28;20480;-75
2022/11/11 02:46:52;;;;;;;24.10;17.35;;;21.30;66.50;;;;;;5023720;28;20123;-75
2022/11/11 02:49:36;;;;;;;23.25;17.27;;;21.30;66.10;;;;;;5012495;28;20080;-75
2022/11/11 02:52:20;;;;;;;25.17;16.35;;;21.30;65.80;;;;;;5005197;28;20030;-75
2022/11/11 02:55:06;;;;;;;23.38;16.33;;;21.30;66.30;;;;;;5009900;28;20026;-75
2022/11/11 02:57:50;;;;;;;24.42;16.90;;;21.30;66.20;;;;;;5022881;28;20025;-75
2022/11/11 03:00:35;;;;;;;25.77;16.75;;;21.30;66.10;;;;;;5014964;28;20068;-75
2022/11/11 03:03:19;;;;;;;25.20;17.23;;;21.30;66.30;;;;;;5014608;28;20037;-74
2022/11/11 03:06:04;;;;;;;24.83;16.27;;;21.30;66.40;;;;;;5004611;28;20037;-75
2022/11/11 03:08:48;;;;;;;23.33;16.38;;;21.30;66.60;;;;;;5018985;28;20029;-75
2022/11/11 03:11:36;;;;;;;24.73;16.13;;;21.30;66.70;;;;;;5001595;28;20544;-74
2022/11/11 03:14:20;;;;;;;21.92;16.02;;;21.30;66.70;;;;;;5011866;28;20030;-75
2022/11/11 03:23:15;;;;;;;23.13;15.40;;;21.30;66.40;;;;;;5006620;28;20030;-75
2022/11/11 03:26:00;;;;;;;21.92;16.05;;;21.30;66.50;;;;;;5001127;28;20063;-75
2022/11/11 03:28:44;;;;;;;23.20;15.38;;;21.30;66.70;;;;;;5006535;28;20045;-75
2022/11/11 03:31:28;;;;;;;21.38;14.05;;;21.30;66.80;;;;;;5017450;28;20511;-75
2022/11/11 03:34:18;;;;;;;20.00;15.15;;;21.30;66.60;;;;;;5003052;28;20141;-75
2022/11/11 03:40:09;;;;;;;21.60;14.85;;;21.30;66.40;;;;;;5003101;28;20404;-75
2022/11/11 03:42:54;;;;;;;22.05;14.15;;;21.30;66.80;;;;;;5018168;28;20557;-75
2022/11/11 03:45:39;;;;;;;20.23;14.07;;;21.30;66.90;;;;;;5000713;28;20125;-76
2022/11/11 03:48:25;;;;;;;22.50;15.20;;;21.30;66.80;;;;;;5019814;28;20033;-75
2022/11/11 03:51:09;;;;;;;21.85;14.32;;;21.30;67.30;;;;;;5019007;28;20030;-76
2022/11/11 03:53:53;;;;;;;20.23;14.65;;;21.30;67.20;;;;;;5005559;28;20037;-75
2022/11/11 03:56:38;;;;;;;20.83;14.98;;;21.30;67.00;;;;;;5012134;28;20072;-75
2022/11/11 03:59:22;;;;;;;20.90;14.45;;;21.30;67.40;;;;;;5015793;28;20033;-75
2022/11/11 04:11:31;;;;;;;21.67;14.35;;;21.30;66.90;;;;;;5019484;28;20446;-75
2022/11/11 04:17:18;;;;;;;20.75;14.00;;;21.30;67.10;;;;;;5016745;28;20164;-75
2022/11/11 04:23:06;;;;;;;20.05;13.93;;;21.30;67.30;;;;;;5016795;28;20022;-75
2022/11/11 04:25:52;;;;;;;19.83;13.85;;;21.30;67.40;;;;;;5022290;28;20033;-75
2022/11/11 04:32:34;;;;;;;21.02;14.00;;;21.30;68.00;;;;;;5016954;28;20391;-75
2022/11/11 04:34:50;;;;;;;19.17;13.18;;;21.30;67.50;;;;;;5009011;28;20105;-75
2022/11/11 04:37:35;;;;;;;;;;;21.30;67.20;;;;;;5011859;28;20480;-75
2022/11/11 04:43:23;;;;;;;19.23;13.18;;;21.30;67.60;;;;;;5025161;28;20030;-75
2022/11/11 04:46:07;;;;;;;18.00;12.82;;;21.30;67.50;;;;;;5043185;22;20047;-74
2022/11/11 04:48:52;;;;;;;18.80;12.70;;;21.30;67.70;;;;;;5031177;28;20029;-74
2022/11/11 04:56:46;;;;;;;18.15;12.25;;;21.30;67.20;;;;;;5037256;28;20032;-74
2022/11/11 04:57:46;;;;;;;18.50;12.88;;;21.30;67.50;;;;;;5020272;28;20152;-74
2022/11/11 05:00:30;;;;;;;20.77;12.40;;;21.30;68.10;;;;;;5013321;28;20041;-74
2022/11/11 05:03:20;;;;;;;19.95;12.43;;;21.40;67.60;;;;;;5001185;28;20057;-74
2022/11/11 05:09:08;;;;;;;19.42;12.50;;;21.30;67.90;;;;;;5014520;28;19944;-74
2022/11/11 05:11:52;;;;;;;20.05;12.13;;;21.30;67.50;;;;;;5019608;28;20441;-74
2022/11/11 05:26:55;;;;;;;18.20;12.05;;;21.30;68.10;;;;;;5020823;28;20124;-74
2022/11/11 05:29:39;;;;;;;17.38;11.60;;;21.30;67.70;;;;;;5016553;28;20364;-74
2022/11/11 05:32:24;;;;;;;20.30;11.55;;;21.30;67.40;;;;;;5022712;28;20450;-74
2022/11/11 05:35:11;;;;;;;20.02;11.38;;;21.30;67.50;;;;;;5021974;28;20021;-74
2022/11/11 05:38:19;;;;;;;17.35;10.63;;;21.30;67.40;;;;;;5012061;28;20026;-74
2022/11/11 05:41:04;;;;;;;16.10;10.75;;;21.30;67.60;;;;;;5026680;28;20040;-74
2022/11/11 05:43:48;;;;;;;18.75;11.68;;;21.30;67.30;;;;;;5019979;28;20030;-74
2022/11/11 05:46:33;;;;;;;15.70;10.75;;;21.30;67.80;;;;;;5020983;28;20096;-74
2022/11/11 05:49:17;;;;;;;18.30;11.50;;;21.30;67.70;;;;;;5021801;28;20496;-74
2022/11/11 05:52:02;;;;;;;17.95;11.20;;;21.30;67.70;;;;;;5012592;28;20087;-75
2022/11/11 05:54:46;;;;;;;16.85;11.05;;;21.30;67.90;;;;;;5003275;28;20026;-74
2022/11/11 05:57:31;;;;;;;18.02;11.85;;;21.30;68.30;;;;;;5015365;28;20030;-74
2022/11/11 06:00:16;;;;;;;14.82;10.45;;;21.30;68.20;;;;;;5023049;28;20025;-74
2022/11/11 06:03:03;;;;;;;17.88;11.00;;;21.30;68.10;;;;;;5020794;28;20458;-73
2022/11/11 06:05:47;;;;;;;14.18;10.05;;;21.30;67.80;;;;;;5026033;28;20434;-74
2022/11/11 06:08:31;;;;;;;18.45;10.93;;;21.30;68.10;;;;;;5009201;28;20032;-74
2022/11/11 06:11:16;;;;;;;16.70;10.77;;;21.40;69.30;;;;;;5022964;28;20040;-75
2022/11/11 06:14:00;;;;;;;16.25;10.65;;;21.40;68.70;;;;;;5017571;28;20034;-75
2022/11/11 06:16:45;;;;;;;18.45;10.90;;;21.40;67.90;;;;;;5018318;28;20072;-74
2022/11/11 06:19:29;;;;;;;16.63;10.93;;;21.30;67.50;;;;;;5008729;28;20029;-75
2022/11/11 06:22:54;;;;;;;14.98;10.10;;;21.30;68.00;;;;;;5021246;28;20502;-74
2022/11/11 06:28:21;;;;;;;16.13;9.75;;;21.30;68.60;;;;;;5018123;28;20018;-73
2022/11/11 06:31:07;;;;;;;17.15;10.30;;;21.30;68.20;;;;;;5018060;28;20388;-73
2022/11/11 06:33:51;;;;;;;17.05;10.10;;;21.40;68.70;;;;;;5024086;28;20080;-73
2022/11/11 06:36:36;;;;;;;16.50;10.27;;;21.30;68.20;;;;;;5019122;28;20100;-74
2022/11/11 06:39:20;;;;;;;15.70;10.32;;;21.30;68.20;;;;;;5023210;28;20022;-74
2022/11/11 06:42:04;;;;;;;16.02;10.07;;;21.30;68.00;;;;;;5017309;28;20033;-74
2022/11/11 06:44:49;;;;;;;16.13;9.98;;;21.30;67.80;;;;;;5022413;28;20092;-74
2022/11/11 06:47:33;;;;;;;14.45;9.05;;;21.30;69.20;;;;;;5011788;28;20026;-74
2022/11/11 06:50:18;;;;;;;15.48;9.07;;;21.30;68.40;;;;;;5005737;28;20048;-73
2022/11/11 06:53:11;;;;;;;15.27;10.05;;;21.30;68.30;;;;;;5023982;28;20030;-73
2022/11/11 06:55:57;;;;;;;15.25;9.50;;;21.30;68.30;;;;;;5019088;28;20018;-73
2022/11/11 06:58:41;;;;;;;14.93;9.65;;;21.30;67.90;;;;;;4997907;28;20122;-73
2022/11/11 07:01:25;;;;;;;15.18;9.57;;;21.30;67.80;;;;;;5021608;28;20032;-73
2022/11/11 07:04:09;;;;;;;14.43;9.38;;;21.30;68.00;;;;;;5014578;28;20491;-73
2022/11/11 07:06:54;;;;;;;14.75;9.88;;;21.30;68.00;;;;;;5011315;28;20495;-73
2022/11/11 07:09:38;;;;;;;14.82;9.10;;;21.30;67.90;;;;;;5009520;28;20408;-72
2022/11/11 07:12:22;;;;;;;14.82;9.40;;;21.30;68.40;;;;;;5023221;28;20030;-72
2022/11/11 07:15:07;;;;;;;15.55;9.48;;;21.30;68.30;;;;;;5019337;28;20025;-73
2022/11/11 07:17:51;;;;;;;14.10;9.13;;;21.30;68.50;;;;;;5001829;28;20505;-73
2022/11/11 07:20:36;;;;;;;16.35;9.35;;;21.30;68.10;;;;;;5016299;28;20033;-73
2022/11/11 07:23:21;;;;;;;15.15;9.80;;;21.30;68.10;;;;;;5016116;28;20061;-73
2022/11/11 07:26:05;;;;;;;15.20;9.23;;;21.30;68.00;;;;;;5008284;28;20029;-71
2022/11/11 07:28:50;;;;;;;17.90;8.95;;;21.40;68.80;;;;;;5010085;28;20076;-73
2022/11/11 07:31:35;;;;;;;14.60;9.25;;;21.40;68.90;;;;;;5012966;28;20026;-70
2022/11/11 07:34:19;;;;;;;16.77;9.05;;;21.40;68.60;;;;;;5011840;28;20096;-71
2022/11/11 07:37:03;;;;;;;15.43;8.93;;;21.40;68.60;;;;;;4992062;28;20033;-72
2022/11/11 07:39:48;;;;;;;17.05;9.23;;;21.40;68.20;;;;;;5015330;28;20037;-72
2022/11/11 07:42:36;;;;;;;16.08;9.00;;;21.40;68.60;;;;;;5010493;28;20040;-71
2022/11/11 07:45:21;;;;;;;15.80;8.95;;;21.40;68.10;;;;;;5009766;28;20113;-72
2022/11/11 07:48:05;;;;;;;16.15;9.07;;;21.40;68.40;;;;;;5006636;28;20022;-71
2022/11/11 07:50:53;;;;;;;15.15;9.13;;;21.40;68.10;;;;;;5003505;28;20045;-72
2022/11/11 07:53:37;;;;;;;16.75;8.90;;;21.40;68.30;;;;;;4997767;28;20401;-72
2022/11/11 07:56:22;;;;;;;15.05;8.85;;;21.40;68.60;;;;;;5017822;28;20026;-72
2022/11/11 07:59:06;;;;;;;17.42;9.27;;;21.40;68.20;;;;;;5015656;28;20044;-72
2022/11/11 08:01:50;;;;;;;14.23;8.57;;;21.30;68.20;;;;;;5011544;28;20306;-72
2022/11/11 08:04:35;;;;;;;15.77;8.10;;;21.40;68.50;;;;;;5013166;28;20041;-72
2022/11/11 08:07:19;;;;;;;17.42;8.35;;;21.30;68.30;;;;;;4997112;28;20029;-72
2022/11/11 08:10:04;;;;;;;16.02;8.65;;;21.40;68.60;;;;;;4997585;28;20487;-71
2022/11/11 08:15:57;;;;;;;15.70;8.60;;;21.30;68.40;;;;;;5015169;28;20076;-71
2022/11/11 08:18:41;;;;;;;15.95;8.07;;;21.30;68.50;;;;;;4994928;28;20274;-71
2022/11/11 08:21:26;;;;;;;19.10;8.50;;;21.30;68.40;;;;;;5017177;28;20032;-71
2022/11/11 08:24:10;;;;;;;17.40;8.73;;;21.30;70.40;;;;;;5011068;28;20033;-72
2022/11/11 08:26:54;;;;;;;16.90;7.95;;;21.30;69.00;;;;;;5016918;28;20065;-72
2022/11/11 08:29:39;;;;;;;18.00;7.47;;;21.40;69.10;;;;;;5010303;28;20086;-71
2022/11/11 08:32:23;;;;;;;15.02;8.27;;;21.30;68.80;;;;;;5005347;28;20103;-72
2022/11/11 08:35:08;;;;;;;23.05;10.18;;;21.30;69.70;;;;;;5007829;28;20030;-71
2022/11/11 08:37:53;;;;;;;13.77;8.20;;;21.40;69.30;;;;;;5016701;28;20527;-72
2022/11/11 08:40:38;;;;;;;14.07;8.10;;;21.40;68.80;;;;;;5007610;28;20056;-72
2022/11/11 08:43:22;;;;;;;105.30;12.95;;;21.50;69.10;;;;;;4986606;28;20034;-73
2022/11/11 08:46:07;;;;;;;271.10;26.58;;;21.50;69.20;;;;;;5019322;28;20040;-73
2022/11/11 08:48:51;;;;;;;214.70;20.08;;;21.50;69.40;;;;;;5022355;28;20029;-72
2022/11/11 08:51:36;;;;;;;151.07;17.48;;;21.60;69.90;;;;;;5020351;28;20029;-75
2022/11/11 08:54:20;;;;;;;84.63;12.88;;;21.60;70.10;;;;;;5014736;28;20472;-72
2022/11/11 08:57:04;;;;;;;90.82;13.30;;;21.60;70.40;;;;;;5017570;28;20037;-72
2022/11/11 08:59:49;;;;;;;74.18;13.02;;;21.60;70.40;;;;;;5008728;28;20026;-72
2022/11/11 09:02:33;;;;;;;56.55;11.50;;;21.60;71.10;;;;;;5031146;28;20033;-71
2022/11/11 09:05:18;;;;;;;51.50;12.18;;;21.70;72.10;;;;;;5019774;28;20033;-72
2022/11/11 09:08:07;;;;;;;52.20;13.27;;;21.70;71.30;;;;;;5020481;28;20025;-72
2022/11/11 09:10:51;;;;;;;68.97;13.77;;;21.70;71.60;;;;;;5019722;28;20105;-71
2022/11/11 09:13:36;;;;;;;45.65;11.50;;;21.80;71.70;;;;;;5012069;28;20782;-72
2022/11/11 09:16:20;;;;;;;46.33;12.10;;;21.80;71.80;;;;;;4996590;28;20025;-84
2022/11/11 09:19:04;;;;;;;24.85;5.88;;;21.70;70.60;;;;;;5020842;28;20029;-83
2022/11/11 09:21:51;;;;;;;13.55;4.40;;;21.50;65.90;;;;;;5018190;28;20069;-83
2022/11/11 09:24:36;;;;;;;11.15;4.03;;;21.30;59.60;;;;;;5011559;28;20040;-84
2022/11/11 09:27:20;;;;;;;18.42;4.75;;;21.10;57.90;;;;;;5013250;28;20022;-86
2022/11/11 09:30:06;;;;;;;12.15;5.22;;;21.00;57.20;;;;;;4995661;28;20133;-86
2022/11/11 09:32:51;;;;;;;12.57;4.65;;;20.80;53.80;;;;;;5026236;28;20412;-86
2022/11/11 09:35:35;;;;;;;9.43;3.50;;;20.60;52.20;;;;;;5017630;28;20105;-86
2022/11/11 09:38:19;;;;;;;12.93;4.00;;;20.40;52.00;;;;;;4981823;28;20042;-87
2022/11/11 09:41:24;;;;;;;9.48;3.55;;;20.20;51.90;;;;;;4996857;28;20026;-80
2022/11/11 09:44:23;;;;;;;8.90;2.95;;;20.20;52.40;;;;;;5006788;28;20038;-87
2022/11/11 09:47:23;;;;;;;18.15;7.65;;;20.20;56.60;;;;;;4995435;28;20125;-86
2022/11/11 09:50:12;;;;;;;55.30;33.00;;;20.30;57.30;;;;;;5017796;28;20036;-73
2022/11/11 09:53:29;;;;;;;51.28;31.02;;;20.40;61.10;;;;;;5011463;28;20018;-73
2022/11/11 09:56:23;;;;;;;55.70;31.92;;;20.40;53.30;;;;;;5026303;28;20037;-73
2022/11/11 09:59:15;;;;;;;47.22;27.63;;;20.50;54.30;;;;;;5025853;28;20030;-73
2022/11/11 10:02:00;;;;;;;41.47;26.40;;;20.60;54.90;;;;;;5013544;28;20637;-73
2022/11/11 10:05:03;;;;;;;40.60;27.73;;;20.70;55.40;;;;;;5014840;28;20514;-72
2022/11/11 10:07:59;;;;;;;41.40;26.73;;;20.80;56.60;;;;;;5011489;28;20037;-73
2022/11/11 10:10:52;;;;;;;39.92;25.48;;;20.90;56.60;;;;;;5014014;28;20029;-73
2022/11/11 10:13:37;;;;;;;37.95;25.25;;;20.90;56.80;;;;;;5007408;28;20026;-72
2022/11/11 10:16:50;;;;;;;38.70;26.05;;;21.00;57.30;;;;;;5009214;28;20057;-73
2022/11/11 10:19:44;;;;;;;39.95;25.08;;;21.00;57.70;;;;;;5009609;28;20124;-73
2022/11/11 10:22:37;;;;;;;38.42;24.95;;;21.00;58.00;;;;;;5017184;28;20033;-73
2022/11/11 10:25:25;;;;;;;37.05;23.83;;;21.00;58.20;;;;;;5022431;28;20083;-73
2022/11/11 10:28:15;;;;;;;36.03;23.98;;;21.00;58.50;;;;;;5030408;28;20032;-73
2022/11/11 10:31:01;;;;;;;39.28;25.40;;;21.00;58.70;;;;;;5029738;28;20463;-73
2022/11/11 10:33:49;;;;;;;36.15;23.63;;;21.00;58.90;;;;;;5030611;28;20029;-73
2022/11/11 10:36:44;;;;;;;33.60;23.50;;;21.10;59.20;;;;;;5027273;28;20456;-73
2022/11/11 10:40:06;;;;;;;35.42;23.73;;;21.10;59.80;;;;;;4990918;28;20080;-73
2022/11/11 10:42:51;;;;;;;34.58;22.95;;;21.10;59.70;;;;;;4990770;28;20033;-73
2022/11/11 10:45:48;;;;;;;34.80;22.75;;;21.10;60.00;;;;;;4990949;28;20037;-74
2022/11/11 10:48:42;;;;;;;37.55;24.73;;;21.20;60.30;;;;;;4990730;28;20033;-74
2022/11/11 10:51:33;;;;;;;35.13;22.05;;;21.20;60.50;;;;;;4992069;28;20031;-73
2022/11/11 10:54:24;;;;;;;37.00;22.73;;;21.20;60.30;;;;;;5025858;28;20099;-73
2022/11/11 10:57:18;;;;;;;31.70;21.95;;;21.20;60.70;;;;;;5022073;28;20097;-73
2022/11/11 11:00:08;;;;;;;31.08;21.45;;;21.20;60.60;;;;;;5030243;28;20095;-73
2022/11/11 11:03:16;;;;;;;31.77;21.83;;;21.20;60.90;;;;;;5029887;28;20036;-73
2022/11/11 11:06:11;;;;;;;33.10;21.73;;;21.20;60.90;;;;;;5029979;28;20025;-73
2022/11/11 11:09:07;;;;;;;32.88;22.42;;;21.20;61.50;;;;;;5025816;28;20095;-74
2022/11/11 11:11:58;;;;;;;32.90;21.42;;;21.20;61.30;;;;;;5020366;28;20075;-74
2022/11/11 11:14:43;;;;;;;;;;;21.20;61.60;;;;;;5026202;28;20462;-74
2022/11/11 11:17:41;;;;;;;28.15;20.35;;;21.20;61.70;;;;;;5015133;28;20429;-74
2022/11/11 11:20:25;;;;;;;30.05;20.73;;;21.20;62.10;;;;;;5010128;28;20115;-73
2022/11/11 11:23:10;;;;;;;32.30;20.33;;;21.20;61.60;;;;;;5008463;28;20040;-73
2022/11/11 11:25:55;;;;;;;31.30;20.45;;;21.20;61.90;;;;;;5010622;28;20076;-73
2022/11/11 11:29:00;;;;;;;31.70;20.38;;;21.20;62.30;;;;;;4990187;28;20033;-73
2022/11/11 11:31:46;;;;;;;29.52;20.90;;;21.30;62.40;;;;;;4975217;28;20187;-74
2022/11/11 11:34:46;;;;;;;30.00;20.70;;;21.30;62.00;;;;;;4989619;28;20069;-74
2022/11/11 11:37:31;;;;;;;30.05;19.92;;;21.20;62.60;;;;;;4972277;28;20450;-74
2022/11/11 11:40:15;;;;;;;29.90;20.20;;;21.30;62.40;;;;;;4993336;28;20060;-74
2022/11/11 11:43:00;;;;;;;31.60;19.75;;;21.30;62.60;;;;;;5007221;28;20030;-74
2022/11/11 11:45:58;;;;;;;28.77;19.88;;;21.30;62.30;;;;;;5003530;28;20033;-73
2022/11/11 11:49:09;;;;;;;27.48;19.45;;;21.30;62.90;;;;;;5009895;28;20116;-74
2022/11/11 11:52:11;;;;;;;32.50;19.75;;;21.30;62.60;;;;;;5009335;28;20448;-73
2022/11/11 11:55:08;;;;;;;28.08;19.35;;;21.30;62.60;;;;;;5009427;28;20026;-74
2022/11/11 11:57:59;;;;;;;28.65;18.92;;;21.30;62.70;;;;;;5021377;28;20143;-75
2022/11/11 12:00:59;;;;;;;;;;;21.30;62.90;;;;;;5000042;28;20060;-74
2022/11/11 12:03:52;;;;;;;;;;;21.30;63.00;;;;;;5019953;28;19916;-74
2022/11/11 12:06:54;;;;;;;27.35;19.02;;;21.30;62.90;;;;;;5009176;28;19924;-74
2022/11/11 12:10:00;;;;;;;26.60;17.45;;;21.30;63.20;;;;;;5007152;28;20034;-74
2022/11/11 12:13:10;;;;;;;27.50;18.33;;;21.30;63.20;;;;;;5012866;28;20036;-74
2022/11/11 12:16:15;;;;;;;26.17;17.95;;;21.30;63.50;;;;;;5012174;28;20064;-74
2022/11/11 12:19:28;;;;;;;25.98;17.65;;;21.30;63.50;;;;;;5013585;28;20382;-74
2022/11/11 12:22:34;;;;;;;27.30;18.05;;;21.30;63.50;;;;;;5029039;28;20049;-74
2022/11/11 12:25:40;;;;;;;42.05;17.67;;;21.40;63.50;;;;;;5019757;28;20099;-74
2022/11/11 12:28:43;;;;;;;26.65;17.17;;;21.30;63.70;;;;;;5008293;28;20030;-74
2022/11/11 12:32:05;;;;;;;28.20;17.73;;;21.30;63.70;;;;;;5008741;28;20029;-74
2022/11/11 12:35:09;;;;;;;26.33;17.67;;;21.30;63.70;;;;;;5007494;28;20145;-74
2022/11/11 12:37:58;;;;;;;25.67;17.00;;;21.30;63.90;;;;;;5008050;28;20105;-73
2022/11/11 12:40:49;;;;;;;25.00;16.85;;;21.30;63.50;;;;;;5009935;28;20107;-73
2022/11/11 12:43:51;;;;;;;27.17;16.83;;;21.30;64.10;;;;;;5021664;28;20069;-73
2022/11/11 12:46:52;;;;;;;23.48;16.08;;;21.30;63.90;;;;;;4989137;28;20212;-73
2022/11/11 12:50:07;;;;;;;25.67;17.58;;;21.30;63.70;;;;;;4988560;28;20030;-74
2022/11/11 12:53:32;;;;;;;26.30;17.13;;;21.30;64.10;;;;;;4989282;28;20161;-73
2022/11/11 12:56:24;;;;;;;25.73;16.92;;;21.30;64.00;;;;;;4994137;28;20065;-74
2022/11/11 12:59:30;;;;;;;25.55;16.73;;;21.30;64.30;;;;;;5020156;28;20054;-74
2022/11/11 13:02:24;;;;;;;24.90;16.90;;;21.30;64.30;;;;;;5028453;28;20279;-73
2022/11/11 13:05:30;;;;;;;23.23;16.20;;;21.40;64.30;;;;;;5027980;28;20502;-74
2022/11/11 13:08:46;;;;;;;23.70;16.65;;;21.30;63.90;;;;;;5028373;28;20030;-73
2022/11/11 13:11:57;;;;;;;25.58;15.48;;;21.30;63.80;;;;;;5025122;28;20053;-74
2022/11/11 13:15:02;;;;;;;23.35;15.85;;;21.30;64.30;;;;;;5015390;28;20080;-74
2022/11/11 13:17:47;;;;;;;24.13;15.63;;;21.30;64.50;;;;;;5028139;28;20039;-74
2022/11/11 13:20:57;;;;;;;21.90;15.32;;;21.40;64.30;;;;;;5027539;28;20037;-73
2022/11/11 13:23:41;;;;;;;23.67;15.65;;;21.40;64.40;;;;;;5028092;28;20036;-74
2022/11/11 13:26:30;;;;;;;22.35;15.77;;;21.30;64.50;;;;;;5022183;28;20062;-74
2022/11/11 13:29:51;;;;;;;23.00;15.32;;;21.30;64.40;;;;;;5026460;28;20110;-73
2022/11/11 13:32:49;;;;;;;23.55;15.07;;;21.40;64.30;;;;;;5031452;28;20061;-73
2022/11/11 13:35:41;;;;;;;22.92;15.43;;;21.30;64.50;;;;;;5031480;28;20515;-73
2022/11/11 13:38:43;;;;;;;26.00;15.38;;;21.30;64.30;;;;;;5013786;28;20033;-73
2022/11/11 13:41:34;;;;;;;21.15;14.70;;;21.40;64.90;;;;;;5024976;28;20033;-73
2022/11/11 13:44:45;;;;;;;24.10;14.70;;;21.30;65.10;;;;;;5030390;28;20064;-74
2022/11/11 13:47:36;;;;;;;22.27;15.02;;;21.40;64.90;;;;;;5030783;28;20068;-74
2022/11/11 13:50:29;;;;;;;21.60;14.80;;;21.30;64.80;;;;;;5031717;28;20032;-73
2022/11/11 13:53:29;;;;;;;33.97;15.20;;;21.40;64.90;;;;;;5031396;28;20031;-74
2022/11/11 13:56:34;;;;;;;30.58;14.55;;;21.40;65.20;;;;;;5027561;28;20030;-74
2022/11/11 13:59:30;;;;;;;21.42;14.48;;;21.30;64.50;;;;;;5029935;28;20091;-74
2022/11/11 14:02:20;;;;;;;25.30;14.85;;;21.30;64.40;;;;;;5026129;28;20327;-74
2022/11/11 14:05:04;;;;;;;22.73;14.02;;;21.30;64.80;;;;;;5029967;28;20033;-74
2022/11/11 14:07:53;;;;;;;23.88;13.85;;;21.30;64.60;;;;;;5010742;28;20113;-74
2022/11/11 14:10:52;;;;;;;19.83;14.63;;;21.30;64.80;;;;;;5027913;28;20021;-74
2022/11/11 14:13:38;;;;;;;27.20;14.25;;;21.30;64.80;;;;;;5016803;28;20418;-74
2022/11/11 14:16:37;;;;;;;21.95;14.18;;;21.30;64.70;;;;;;5031132;28;20041;-74
2022/11/11 14:19:21;;;;;;;21.83;14.32;;;21.30;64.80;;;;;;5030783;28;20029;-74
2022/11/11 14:22:32;;;;;;;20.05;13.35;;;21.30;64.80;;;;;;4999306;28;20586;-74
2022/11/11 14:25:24;;;;;;;19.80;13.90;;;21.30;64.80;;;;;;5030930;28;20064;-74
2022/11/11 14:28:30;;;;;;;20.00;13.95;;;21.30;64.70;;;;;;5022250;28;20018;-74
2022/11/11 14:31:15;;;;;;;21.77;13.48;;;21.30;65.00;;;;;;5028996;28;20483;-74
2022/11/11 14:34:21;;;;;;;19.55;13.18;;;21.30;64.70;;;;;;5017093;28;20025;-73
2022/11/11 14:37:21;;;;;;;23.92;13.93;;;21.30;64.80;;;;;;5011246;28;20471;-79
2022/11/11 14:40:11;;;;;;;26.08;13.52;;;21.30;64.40;;;;;;5011026;28;20030;-79
2022/11/11 14:42:57;;;;;;;22.05;13.63;;;21.30;64.60;;;;;;5017086;28;20029;-78
2022/11/11 14:45:47;;;;;;;19.73;13.05;;;21.30;64.90;;;;;;4995764;28;20034;-78
2022/11/11 14:48:53;;;;;;;22.65;13.32;;;21.30;65.30;;;;;;5010905;28;20030;-78
2022/11/11 14:51:37;;;;;;;22.35;13.55;;;21.30;65.90;;;;;;5011047;28;20029;-78
2022/11/11 14:54:31;;;;;;;23.55;13.48;;;21.30;66.00;;;;;;5011537;28;20029;-79
2022/11/11 14:57:23;;;;;;;21.63;12.73;;;21.40;65.90;;;;;;5021853;28;20470;-79
2022/11/11 15:00:20;;;;;;;22.25;13.05;;;21.40;65.30;;;;;;5029974;28;20032;-79
2022/11/11 15:03:16;;;;;;;19.88;13.10;;;21.30;65.40;;;;;;5030048;28;20026;-79
2022/11/11 15:06:23;;;;;;;19.83;13.18;;;21.40;65.50;;;;;;5030125;28;20040;-79
2022/11/11 15:09:25;;;;;;;19.23;12.25;;;21.30;65.80;;;;;;5030203;28;20076;-79
2022/11/11 15:12:37;;;;;;;21.48;12.93;;;21.40;65.60;;;;;;5018763;28;20112;-79
2022/11/11 15:15:37;;;;;;;19.20;12.40;;;21.30;65.80;;;;;;5019288;28;20036;-79
2022/11/11 15:18:46;;;;;;;20.63;12.60;;;21.30;65.60;;;;;;5009809;28;20037;-80
2022/11/11 15:21:36;;;;;;;19.25;13.10;;;21.30;65.50;;;;;;5006611;28;20152;-78
2022/11/11 15:24:38;;;;;;;21.35;12.07;;;21.40;66.00;;;;;;5009553;28;20030;-78
2022/11/11 15:27:58;;;;;;;18.02;11.85;;;21.40;65.70;;;;;;5014290;28;20022;-79
2022/11/11 15:31:21;;;;;;;20.30;12.88;;;21.40;66.10;;;;;;5009599;28;20025;-79
2022/11/11 15:34:42;;;;;;;18.10;12.27;;;21.30;65.40;;;;;;5004398;28;20036;-79
2022/11/11 15:37:28;;;;;;;21.05;12.25;;;21.40;66.00;;;;;;5029902;28;20029;-78
2022/11/11 15:40:22;;;;;;;19.08;11.75;;;21.30;65.80;;;;;;5026701;28;20040;-79
2022/11/11 15:43:13;;;;;;;18.63;11.90;;;21.30;65.70;;;;;;5015127;28;20065;-79
2022/11/11 15:46:02;;;;;;;18.08;11.98;;;21.30;66.00;;;;;;5014645;28;20052;-78
2022/11/11 15:48:47;;;;;;;19.42;12.75;;;21.30;65.90;;;;;;5029963;28;20049;-78
2022/11/11 15:51:32;;;;;;;17.67;11.50;;;21.40;66.00;;;;;;5029720;28;20112;-78
2022/11/11 15:54:23;;;;;;;19.27;11.77;;;21.30;65.80;;;;;;5008889;28;20081;-80